createdAt,value
2022-08-16T00:00:03.389Z,20.3
2022-08-16T00:01:01.797Z,20.3
2022-08-16T00:02:01.360Z,20.3
2022-08-16T00:03:01.897Z,20.2
2022-08-16T00:04:01.460Z,20.3
2022-08-16T00:05:01.003Z,20.2
2022-08-16T00:06:01.582Z,20.2
2022-08-16T00:07:01.078Z,20.2
2022-08-16T00:08:01.463Z,20.2
2022-08-16T00:09:00.998Z,20.1
2022-08-16T00:10:01.580Z,20
2022-08-16T00:11:01.239Z,20
2022-08-16T00:12:01.741Z,20
2022-08-16T00:13:01.857Z,19.9
2022-08-16T00:14:01.073Z,19.9
2022-08-16T00:15:01.630Z,19.9
2022-08-16T00:16:01.210Z,19.9
2022-08-16T00:17:11.967Z,19.8
2022-08-16T00:18:01.290Z,19.8
2022-08-16T00:19:01.873Z,19.9
2022-08-16T00:20:01.892Z,19.7
2022-08-16T00:21:01.429Z,19.8
2022-08-16T00:22:03.149Z,19.7
2022-08-16T00:23:01.533Z,19.7
2022-08-16T00:24:04.498Z,19.7
2022-08-16T00:25:00.980Z,19.6
2022-08-16T00:26:34.041Z,19.6
2022-08-16T00:27:01.102Z,19.6
2022-08-16T00:28:01.178Z,19.6
2022-08-16T00:29:01.749Z,19.6
2022-08-16T00:30:09.090Z,19.6
2022-08-16T00:31:01.151Z,19.6
2022-08-16T00:32:05.347Z,19.5
2022-08-16T00:33:01.728Z,19.5
2022-08-16T00:34:01.308Z,19.5
2022-08-16T00:35:01.948Z,19.4
2022-08-16T00:36:01.620Z,19.4
2022-08-16T00:37:03.504Z,19.4
2022-08-16T00:38:01.752Z,19.5
2022-08-16T00:39:01.297Z,19.4
2022-08-16T00:40:01.965Z,19.4
2022-08-16T00:41:01.561Z,19.4
2022-08-16T00:42:01.141Z,19.4
2022-08-16T00:43:01.724Z,19.4
2022-08-16T00:44:01.856Z,19.4
2022-08-16T00:45:01.045Z,19.4
2022-08-16T00:46:22.149Z,19.4
2022-08-16T00:47:02.345Z,19.5
2022-08-16T00:48:01.682Z,19.4
2022-08-16T00:49:01.224Z,19.4
2022-08-16T00:50:01.099Z,19.4
2022-08-16T00:51:01.701Z,19.4
2022-08-16T00:52:01.372Z,19.4
2022-08-16T00:53:01.856Z,19.5
2022-08-16T00:54:01.440Z,19.4
2022-08-16T00:55:01.083Z,19.4
2022-08-16T00:56:05.288Z,19.5
2022-08-16T00:57:01.220Z,19.5
2022-08-16T00:58:01.798Z,19.5
2022-08-16T00:59:01.498Z,19.6
2022-08-16T01:00:01.159Z,19.6
2022-08-16T01:01:01.565Z,19.6
2022-08-16T01:02:01.182Z,19.6
2022-08-16T01:03:01.721Z,19.5
2022-08-16T01:04:01.304Z,19.5
2022-08-16T01:05:04.753Z,19.6
2022-08-16T01:06:32.860Z,19.6
2022-08-16T01:07:02.528Z,19.6
2022-08-16T01:08:01.471Z,19.6
2022-08-16T01:09:01.162Z,19.6
2022-08-16T01:10:01.742Z,19.6
2022-08-16T01:11:02.370Z,19.6
2022-08-16T01:12:01.152Z,19.5
2022-08-16T01:13:01.476Z,19.6
2022-08-16T01:14:01.018Z,19.7
2022-08-16T01:15:01.597Z,19.7
2022-08-16T01:16:01.267Z,19.7
2022-08-16T01:17:01.637Z,19.6
2022-08-16T01:18:01.219Z,19.7
2022-08-16T01:19:01.017Z,19.7
2022-08-16T01:20:01.248Z,19.7
2022-08-16T01:21:01.829Z,19.7
2022-08-16T01:22:42.821Z,19.6
2022-08-16T01:23:01.182Z,19.7
2022-08-16T01:24:02.191Z,19.6
2022-08-16T01:25:00.975Z,19.7
2022-08-16T01:26:33.993Z,19.7
2022-08-16T01:27:03.824Z,19.6
2022-08-16T01:28:01.095Z,19.5
2022-08-16T01:29:01.732Z,19.6
2022-08-16T01:30:01.328Z,19.6
2022-08-16T01:31:01.931Z,19.6
2022-08-16T01:32:01.513Z,19.6
2022-08-16T01:33:03.062Z,19.6
2022-08-16T01:34:01.679Z,19.7
2022-08-16T01:35:01.258Z,19.6
2022-08-16T01:36:01.861Z,19.6
2022-08-16T01:37:01.459Z,19.6
2022-08-16T01:38:01.062Z,19.6
2022-08-16T01:39:01.349Z,19.5
2022-08-16T01:40:01.003Z,19.5
2022-08-16T01:41:01.746Z,19.4
2022-08-16T01:42:01.835Z,19.5
2022-08-16T01:43:01.298Z,19.5
2022-08-16T01:44:01.591Z,19.5
2022-08-16T01:45:01.287Z,19.5
2022-08-16T01:46:30.237Z,19.5
2022-08-16T01:47:01.429Z,19.6
2022-08-16T01:48:01.340Z,19.6
2022-08-16T01:49:00.931Z,19.6
2022-08-16T01:50:41.453Z,19.6
2022-08-16T01:51:08.640Z,19.7
2022-08-16T01:52:01.632Z,19.6
2022-08-16T01:53:01.298Z,19.6
2022-08-16T01:54:01.340Z,19.6
2022-08-16T01:55:01.448Z,19.7
2022-08-16T01:56:00.976Z,19.6
2022-08-16T01:57:01.543Z,19.6
2022-08-16T01:58:01.127Z,19.6
2022-08-16T01:59:01.723Z,19.6
2022-08-16T02:00:01.303Z,19.6
2022-08-16T02:01:01.919Z,19.6
2022-08-16T02:02:01.597Z,19.6
2022-08-16T02:03:02.462Z,19.5
2022-08-16T02:04:10.548Z,19.5
2022-08-16T02:05:01.669Z,19.5
2022-08-16T02:06:00.951Z,19.5
2022-08-16T02:07:01.545Z,19.4
2022-08-16T02:08:01.195Z,19.5
2022-08-16T02:09:01.758Z,19.5
2022-08-16T02:10:01.938Z,19.5
2022-08-16T02:11:01.797Z,19.4
2022-08-16T02:12:40.020Z,19.4
2022-08-16T02:13:01.253Z,19.4
2022-08-16T02:14:01.749Z,19.3
2022-08-16T02:15:01.286Z,19.4
2022-08-16T02:16:01.866Z,19.2
2022-08-16T02:17:01.468Z,19.3
2022-08-16T02:18:01.477Z,19.3
2022-08-16T02:19:01.680Z,19.3
2022-08-16T02:20:01.217Z,19.3
2022-08-16T02:21:01.798Z,19.3
2022-08-16T02:22:08.055Z,19.3
2022-08-16T02:23:05.666Z,19.4
2022-08-16T02:24:01.463Z,19.4
2022-08-16T02:25:01.047Z,19.4
2022-08-16T02:26:01.633Z,19.4
2022-08-16T02:27:01.302Z,19.3
2022-08-16T02:28:01.858Z,19.4
2022-08-16T02:29:01.437Z,19.3
2022-08-16T02:30:05.418Z,19.3
2022-08-16T02:31:01.669Z,19.3
2022-08-16T02:32:02.890Z,19.3
2022-08-16T02:33:02.114Z,19.3
2022-08-16T02:34:06.400Z,19.3
2022-08-16T02:35:01.715Z,19.2
2022-08-16T02:36:01.421Z,19.2
2022-08-16T02:37:01.583Z,19.3
2022-08-16T02:38:01.553Z,19.2
2022-08-16T02:39:01.552Z,19.2
2022-08-16T02:40:01.164Z,19.2
2022-08-16T02:41:01.836Z,19.2
2022-08-16T02:42:01.365Z,19.2
2022-08-16T02:43:00.953Z,19.1
2022-08-16T02:44:01.391Z,19.1
2022-08-16T02:45:00.995Z,19.1
2022-08-16T02:46:01.591Z,19.1
2022-08-16T02:47:02.462Z,19
2022-08-16T02:48:30.193Z,19
2022-08-16T02:49:01.962Z,19
2022-08-16T02:50:53.023Z,19
2022-08-16T02:51:03.289Z,19.1
2022-08-16T02:52:01.718Z,19
2022-08-16T02:53:01.429Z,18.9
2022-08-16T02:54:01.580Z,18.9
2022-08-16T02:55:01.189Z,18.9
2022-08-16T02:56:01.634Z,18.8
2022-08-16T02:57:01.217Z,18.9
2022-08-16T02:58:01.786Z,18.8
2022-08-16T02:59:01.395Z,19
2022-08-16T03:00:03.854Z,18.8
2022-08-16T03:01:01.513Z,18.8
2022-08-16T03:02:01.192Z,18.8
2022-08-16T03:03:01.674Z,18.9
2022-08-16T03:04:30.341Z,18.8
2022-08-16T03:05:01.683Z,18.8
2022-08-16T03:06:01.380Z,18.8
2022-08-16T03:07:00.993Z,18.8
2022-08-16T03:08:01.548Z,18.8
2022-08-16T03:09:01.335Z,18.6
2022-08-16T03:10:01.721Z,18.7
2022-08-16T03:11:01.304Z,18.8
2022-08-16T03:12:02.424Z,18.7
2022-08-16T03:13:01.650Z,18.7
2022-08-16T03:14:01.716Z,18.6
2022-08-16T03:15:01.257Z,18.6
2022-08-16T03:16:01.835Z,18.6
2022-08-16T03:17:02.225Z,18.5
2022-08-16T03:18:01.865Z,18.6
2022-08-16T03:19:01.970Z,18.5
2022-08-16T03:20:02.638Z,18.5
2022-08-16T03:21:01.477Z,18.4
2022-08-16T03:22:01.003Z,18.4
2022-08-16T03:23:01.675Z,18.4
2022-08-16T03:24:01.236Z,18.4
2022-08-16T03:25:01.955Z,18.3
2022-08-16T03:26:01.443Z,18.4
2022-08-16T03:27:01.810Z,18.3
2022-08-16T03:28:01.497Z,18.3
2022-08-16T03:29:01.079Z,18.3
2022-08-16T03:30:02.031Z,18.2
2022-08-16T03:31:01.317Z,18.3
2022-08-16T03:32:01.976Z,18.2
2022-08-16T03:33:01.572Z,18.2
2022-08-16T03:34:01.142Z,18.3
2022-08-16T03:35:01.745Z,18.3
2022-08-16T03:36:20.127Z,18.2
2022-08-16T03:37:01.866Z,18.3
2022-08-16T03:38:03.764Z,18.1
2022-08-16T03:39:00.987Z,18.3
2022-08-16T03:40:02.538Z,18.1
2022-08-16T03:41:01.540Z,18.2
2022-08-16T03:42:01.619Z,18.2
2022-08-16T03:43:19.586Z,18.2
2022-08-16T03:44:01.807Z,18.3
2022-08-16T03:45:03.680Z,18.2
2022-08-16T03:46:01.764Z,18.2
2022-08-16T03:47:01.303Z,18.1
2022-08-16T03:48:01.561Z,18.2
2022-08-16T03:49:01.100Z,18.2
2022-08-16T03:50:01.570Z,18.2
2022-08-16T03:51:01.553Z,18.1
2022-08-16T03:52:01.092Z,18.1
2022-08-16T03:53:05.742Z,18.1
2022-08-16T03:54:01.736Z,18.1
2022-08-16T03:55:01.867Z,18.2
2022-08-16T03:56:01.510Z,18.1
2022-08-16T03:57:01.044Z,18.2
2022-08-16T03:58:01.595Z,18.2
2022-08-16T03:59:01.913Z,18.2
2022-08-16T04:00:01.495Z,18.2
2022-08-16T04:01:01.094Z,18.1
2022-08-16T04:02:02.057Z,18.1
2022-08-16T04:03:01.402Z,18.2
2022-08-16T04:04:01.921Z,18.2
2022-08-16T04:05:01.982Z,18.2
2022-08-16T04:06:02.257Z,18.1
2022-08-16T04:07:02.724Z,18.2
2022-08-16T04:08:01.919Z,18.1
2022-08-16T04:09:01.460Z,18.1
2022-08-16T04:10:35.702Z,18.2
2022-08-16T04:11:01.661Z,18.1
2022-08-16T04:12:01.791Z,18.1
2022-08-16T04:13:04.409Z,18.1
2022-08-16T04:14:08.853Z,18.2
2022-08-16T04:15:02.282Z,18.2
2022-08-16T04:16:01.155Z,18.1
2022-08-16T04:17:01.859Z,18.1
2022-08-16T04:18:01.297Z,18.1
2022-08-16T04:19:02.830Z,18.1
2022-08-16T04:20:01.344Z,18.1
2022-08-16T04:21:01.925Z,18
2022-08-16T04:22:01.884Z,18.1
2022-08-16T04:23:01.422Z,18.1
2022-08-16T04:24:01.743Z,18.2
2022-08-16T04:25:01.457Z,18.1
2022-08-16T04:26:01.958Z,18.2
2022-08-16T04:27:01.823Z,18.2
2022-08-16T04:28:28.920Z,18.2
2022-08-16T04:29:14.844Z,18.2
2022-08-16T04:30:02.605Z,18.3
2022-08-16T04:31:01.851Z,18.3
2022-08-16T04:32:01.413Z,18.2
2022-08-16T04:33:01.862Z,18.2
2022-08-16T04:34:01.400Z,18.2
2022-08-16T04:35:04.861Z,18.3
2022-08-16T04:36:01.523Z,18.3
2022-08-16T04:37:01.828Z,18.3
2022-08-16T04:38:10.837Z,18.4
2022-08-16T04:39:01.892Z,18.2
2022-08-16T04:40:05.432Z,18.3
2022-08-16T04:41:01.013Z,18.3
2022-08-16T04:42:01.657Z,18.3
2022-08-16T04:43:01.272Z,18.3
2022-08-16T04:44:01.871Z,18.3
2022-08-16T04:45:01.895Z,18.3
2022-08-16T04:46:01.126Z,18.3
2022-08-16T04:47:03.080Z,18.3
2022-08-16T04:48:01.770Z,18.3
2022-08-16T04:49:01.912Z,18.4
2022-08-16T04:50:01.560Z,18.4
2022-08-16T04:51:01.082Z,18.4
2022-08-16T04:52:01.622Z,18.3
2022-08-16T04:53:01.876Z,18.5
2022-08-16T04:54:01.459Z,18.5
2022-08-16T04:55:01.000Z,18.5
2022-08-16T04:56:01.542Z,18.5
2022-08-16T04:57:01.788Z,18.5
2022-08-16T04:58:01.518Z,18.5
2022-08-16T04:59:01.061Z,18.5
2022-08-16T05:00:25.336Z,18.6
2022-08-16T05:01:01.085Z,18.6
2022-08-16T05:02:01.701Z,18.6
2022-08-16T05:03:02.819Z,18.7
2022-08-16T05:04:01.938Z,18.7
2022-08-16T05:05:01.573Z,18.7
2022-08-16T05:06:05.081Z,18.8
2022-08-16T05:07:01.675Z,18.8
2022-08-16T05:08:01.257Z,18.9
2022-08-16T05:09:01.797Z,18.9
2022-08-16T05:10:01.884Z,18.8
2022-08-16T05:11:01.380Z,18.8
2022-08-16T05:12:01.615Z,19
2022-08-16T05:13:01.329Z,18.9
2022-08-16T05:14:05.690Z,19.1
2022-08-16T05:15:02.294Z,19.1
2022-08-16T05:16:01.504Z,19.3
2022-08-16T05:17:01.526Z,19.3
2022-08-16T05:18:03.599Z,19.5
2022-08-16T05:19:01.648Z,19.5
2022-08-16T05:20:01.370Z,19.5
2022-08-16T05:21:09.805Z,19.5
2022-08-16T05:22:01.451Z,19.8
2022-08-16T05:23:01.030Z,19.7
2022-08-16T05:24:01.823Z,19.7
2022-08-16T05:25:01.271Z,19.8
2022-08-16T05:26:01.810Z,19.9
2022-08-16T05:27:11.042Z,19.9
2022-08-16T05:28:01.929Z,19.9
2022-08-16T05:29:03.780Z,19.9
2022-08-16T05:30:03.830Z,20
2022-08-16T05:31:01.570Z,20.1
2022-08-16T05:32:01.292Z,20.1
2022-08-16T05:33:01.886Z,20
2022-08-16T05:34:03.061Z,20.1
2022-08-16T05:35:01.894Z,20.1
2022-08-16T05:36:03.713Z,20.1
2022-08-16T05:37:01.482Z,20.2
2022-08-16T05:38:01.144Z,20.2
2022-08-16T05:39:02.383Z,20.2
2022-08-16T05:40:01.141Z,20.3
2022-08-16T05:41:02.035Z,20.3
2022-08-16T05:42:01.407Z,20.3
2022-08-16T05:43:03.504Z,20.3
2022-08-16T05:44:01.187Z,20.3
2022-08-16T05:45:01.745Z,20.3
2022-08-16T05:46:01.286Z,20.4
2022-08-16T05:47:01.433Z,20.4
2022-08-16T05:48:01.513Z,20.4
2022-08-16T05:49:05.744Z,20.4
2022-08-16T05:50:02.276Z,20.4
2022-08-16T05:51:01.940Z,20.5
2022-08-16T05:52:01.501Z,20.5
2022-08-16T05:53:01.057Z,20.5
2022-08-16T05:54:01.643Z,20.6
2022-08-16T05:55:01.870Z,20.6
2022-08-16T05:56:01.539Z,20.6
2022-08-16T05:57:01.102Z,20.7
2022-08-16T05:58:01.685Z,20.8
2022-08-16T05:59:01.316Z,20.8
2022-08-16T06:00:04.553Z,20.7
2022-08-16T06:01:01.452Z,20.8
2022-08-16T06:02:01.379Z,20.8
2022-08-16T06:03:01.659Z,20.8
2022-08-16T06:04:01.242Z,20.8
2022-08-16T06:05:02.087Z,20.9
2022-08-16T06:06:01.486Z,21
2022-08-16T06:07:03.478Z,20.8
2022-08-16T06:08:01.566Z,20.8
2022-08-16T06:09:01.147Z,21.1
2022-08-16T06:10:01.741Z,21.1
2022-08-16T06:11:02.538Z,21.2
2022-08-16T06:12:01.933Z,21.3
2022-08-16T06:13:01.748Z,21.3
2022-08-16T06:14:01.198Z,21.3
2022-08-16T06:15:01.514Z,21.2
2022-08-16T06:16:01.093Z,21.4
2022-08-16T06:17:05.459Z,21.5
2022-08-16T06:18:01.802Z,21.5
2022-08-16T06:19:04.681Z,21.6
2022-08-16T06:20:01.467Z,21.7
2022-08-16T06:21:01.150Z,21.8
2022-08-16T06:22:01.728Z,21.7
2022-08-16T06:23:03.190Z,21.7
2022-08-16T06:24:01.867Z,21.6
2022-08-16T06:25:01.420Z,21.7
2022-08-16T06:26:01.963Z,21.5
2022-08-16T06:27:01.544Z,21.5
2022-08-16T06:28:01.422Z,21.5
2022-08-16T06:29:01.961Z,21.4
2022-08-16T06:30:01.540Z,21.4
2022-08-16T06:31:02.049Z,21.3
2022-08-16T06:32:01.637Z,21.3
2022-08-16T06:33:01.178Z,21.4
2022-08-16T06:34:01.778Z,21.5
2022-08-16T06:35:02.214Z,21.5
2022-08-16T06:36:01.315Z,21.5
2022-08-16T06:37:01.577Z,21.4
2022-08-16T06:38:01.156Z,21.6
2022-08-16T06:39:01.517Z,21.5
2022-08-16T06:40:01.159Z,21.4
2022-08-16T06:41:01.599Z,21.5
2022-08-16T06:42:01.092Z,21.6
2022-08-16T06:43:01.771Z,21.6
2022-08-16T06:44:01.741Z,21.6
2022-08-16T06:45:01.322Z,21.7
2022-08-16T06:46:03.676Z,21.6
2022-08-16T06:47:02.773Z,21.5
2022-08-16T06:48:01.588Z,21.7
2022-08-16T06:49:01.755Z,21.7
2022-08-16T06:50:01.291Z,21.8
2022-08-16T06:51:01.918Z,21.9
2022-08-16T06:52:02.839Z,22.1
2022-08-16T06:53:08.820Z,22.1
2022-08-16T06:54:01.447Z,22
2022-08-16T06:55:01.878Z,21.9
2022-08-16T06:56:01.458Z,21.9
2022-08-16T06:57:01.189Z,21.8
2022-08-16T06:58:01.166Z,21.8
2022-08-16T06:59:01.751Z,21.8
2022-08-16T07:00:02.093Z,22
2022-08-16T07:01:01.822Z,22.1
2022-08-16T07:02:01.619Z,22
2022-08-16T07:03:01.206Z,21.9
2022-08-16T07:04:01.735Z,22
2022-08-16T07:05:01.338Z,22.2
2022-08-16T07:06:01.901Z,22.2
2022-08-16T07:07:02.022Z,22.3
2022-08-16T07:08:01.531Z,22.2
2022-08-16T07:09:01.910Z,22.2
2022-08-16T07:10:01.293Z,22.2
2022-08-16T07:11:01.831Z,22.1
2022-08-16T07:12:03.350Z,22.3
2022-08-16T07:13:03.733Z,22.1
2022-08-16T07:14:04.040Z,22.1
2022-08-16T07:15:01.339Z,22.3
2022-08-16T07:16:01.919Z,22.3
2022-08-16T07:17:01.521Z,22.5
2022-08-16T07:18:01.082Z,22.7
2022-08-16T07:19:02.865Z,22.8
2022-08-16T07:20:30.612Z,22.8
2022-08-16T07:21:02.126Z,22.9
2022-08-16T07:22:01.570Z,22.9
2022-08-16T07:23:01.369Z,23
2022-08-16T07:24:05.735Z,23
2022-08-16T07:25:01.293Z,22.8
2022-08-16T07:26:01.968Z,22.9
2022-08-16T07:27:01.549Z,22.8
2022-08-16T07:28:01.135Z,22.7
2022-08-16T07:29:01.719Z,22.8
2022-08-16T07:30:01.323Z,23
2022-08-16T07:31:01.906Z,23
2022-08-16T07:32:01.517Z,23.1
2022-08-16T07:33:01.087Z,23.2
2022-08-16T07:34:01.660Z,23.2
2022-08-16T07:35:01.239Z,22.9
2022-08-16T07:36:01.817Z,22.7
2022-08-16T07:37:01.379Z,22.7
2022-08-16T07:38:01.062Z,22.7
2022-08-16T07:39:01.643Z,22.8
2022-08-16T07:40:01.269Z,22.7
2022-08-16T07:41:09.464Z,22.7
2022-08-16T07:42:01.344Z,22.9
2022-08-16T07:43:01.579Z,23.1
2022-08-16T07:44:01.347Z,23.2
2022-08-16T07:45:01.189Z,23.2
2022-08-16T07:46:01.810Z,23.1
2022-08-16T07:47:01.423Z,23.1
2022-08-16T07:48:11.375Z,23.2
2022-08-16T07:49:02.183Z,23.2
2022-08-16T07:50:05.609Z,23.2
2022-08-16T07:51:05.314Z,23.3
2022-08-16T07:52:01.562Z,23.1
2022-08-16T07:53:01.870Z,23.1
2022-08-16T07:54:02.281Z,23.1
2022-08-16T07:55:01.212Z,23.2
2022-08-16T07:56:01.811Z,23.3
2022-08-16T07:57:01.351Z,23.7
2022-08-16T07:58:03.364Z,23.9
2022-08-16T07:59:01.061Z,23.6
2022-08-16T08:00:01.886Z,23.5
2022-08-16T08:01:01.592Z,23.6
2022-08-16T08:02:01.325Z,23.7
2022-08-16T08:03:01.215Z,23.8
2022-08-16T08:04:01.249Z,23.8
2022-08-16T08:05:02.055Z,24.1
2022-08-16T08:06:01.710Z,24.1
2022-08-16T08:07:01.290Z,24.1
2022-08-16T08:08:01.831Z,24.1
2022-08-16T08:09:01.371Z,24.1
2022-08-16T08:10:01.958Z,24
2022-08-16T08:11:01.997Z,24.1
2022-08-16T08:12:05.304Z,24.1
2022-08-16T08:13:01.601Z,24.2
2022-08-16T08:14:03.407Z,24.2
2022-08-16T08:15:01.705Z,24.1
2022-08-16T08:16:01.305Z,24.2
2022-08-16T08:17:02.063Z,24.3
2022-08-16T08:18:01.624Z,24.3
2022-08-16T08:19:02.212Z,24.4
2022-08-16T08:20:01.304Z,24.7
2022-08-16T08:21:01.883Z,24.6
2022-08-16T08:22:05.870Z,24.7
2022-08-16T08:23:01.804Z,24.3
2022-08-16T08:24:01.931Z,24.1
2022-08-16T08:25:03.684Z,24
2022-08-16T08:26:01.074Z,24.3
2022-08-16T08:27:02.146Z,24.4
2022-08-16T08:28:01.656Z,24.3
2022-08-16T08:29:01.266Z,24.5
2022-08-16T08:30:09.466Z,24.5
2022-08-16T08:31:02.826Z,24.7
2022-08-16T08:32:01.721Z,24.9
2022-08-16T08:33:01.352Z,24.8
2022-08-16T08:34:01.955Z,24.9
2022-08-16T08:35:03.511Z,24.7
2022-08-16T08:36:02.063Z,24.6
2022-08-16T08:37:01.646Z,24.6
2022-08-16T08:38:01.227Z,24.8
2022-08-16T08:39:01.816Z,25.1
2022-08-16T08:40:01.466Z,25.3
2022-08-16T08:41:01.442Z,25.2
2022-08-16T08:42:02.026Z,25.2
2022-08-16T08:43:11.562Z,25
2022-08-16T08:44:28.102Z,25.1
2022-08-16T08:45:01.358Z,25.3
2022-08-16T08:46:01.941Z,25.5
2022-08-16T08:47:02.344Z,25.5
2022-08-16T08:48:01.864Z,25.3
2022-08-16T08:49:02.043Z,25.1
2022-08-16T08:50:01.154Z,25.2
2022-08-16T08:51:01.736Z,25.1
2022-08-16T08:52:01.438Z,24.9
2022-08-16T08:53:01.977Z,24.7
2022-08-16T08:54:01.563Z,24.7
2022-08-16T08:55:01.103Z,25.2
2022-08-16T08:56:01.826Z,25.3
2022-08-16T08:57:01.409Z,25.5
2022-08-16T08:58:01.990Z,25.8
2022-08-16T08:59:04.621Z,26
2022-08-16T09:00:01.771Z,25.8
2022-08-16T09:01:01.656Z,25.4
2022-08-16T09:02:01.480Z,25.5
2022-08-16T09:03:04.217Z,25.6
2022-08-16T09:04:01.398Z,25.6
2022-08-16T09:05:02.070Z,25.7
2022-08-16T09:06:01.579Z,25.7
2022-08-16T09:07:01.676Z,25.8
2022-08-16T09:08:05.710Z,26.2
2022-08-16T09:09:01.921Z,26.3
2022-08-16T09:10:06.981Z,26.3
2022-08-16T09:11:03.066Z,26.1
2022-08-16T09:12:04.535Z,26.1
2022-08-16T09:13:01.379Z,26
2022-08-16T09:14:01.985Z,26.1
2022-08-16T09:15:01.573Z,26.2
2022-08-16T09:16:01.664Z,26.1
2022-08-16T09:17:05.499Z,26.1
2022-08-16T09:18:02.029Z,26.3
2022-08-16T09:19:03.844Z,26.3
2022-08-16T09:20:04.747Z,26.2
2022-08-16T09:21:01.869Z,26.2
2022-08-16T09:22:01.383Z,26.4
2022-08-16T09:23:01.972Z,26.7
2022-08-16T09:24:01.250Z,26.7
2022-08-16T09:25:09.641Z,26.5
2022-08-16T09:26:01.779Z,26.6
2022-08-16T09:27:01.319Z,26.4
2022-08-16T09:28:02.614Z,26.5
2022-08-16T09:29:14.312Z,26.3
2022-08-16T09:30:02.493Z,26.4
2022-08-16T09:31:01.672Z,26.8
2022-08-16T09:32:01.253Z,26.8
2022-08-16T09:33:01.441Z,26.6
2022-08-16T09:34:02.021Z,26.4
2022-08-16T09:35:01.382Z,26.5
2022-08-16T09:36:01.990Z,26.5
2022-08-16T09:37:01.756Z,26.6
2022-08-16T09:38:01.551Z,26.1
2022-08-16T09:39:01.778Z,26.1
2022-08-16T09:40:02.138Z,26.2
2022-08-16T09:41:01.904Z,26.3
2022-08-16T09:42:01.602Z,26.4
2022-08-16T09:43:01.465Z,26.3
2022-08-16T09:44:02.610Z,26.5
2022-08-16T09:45:09.816Z,26.4
2022-08-16T09:46:01.947Z,26.4
2022-08-16T09:47:01.276Z,26.5
2022-08-16T09:48:01.856Z,26.5
2022-08-16T09:49:03.421Z,26.2
2022-08-16T09:50:02.055Z,26.2
2022-08-16T09:51:01.794Z,26.4
2022-08-16T09:52:01.349Z,26.4
2022-08-16T09:53:01.927Z,26.2
2022-08-16T09:54:01.603Z,26.3
2022-08-16T09:55:01.170Z,26.7
2022-08-16T09:56:01.728Z,27
2022-08-16T09:57:01.335Z,26.9
2022-08-16T09:58:01.894Z,27
2022-08-16T09:59:04.038Z,27.4
2022-08-16T10:00:02.012Z,27.2
2022-08-16T10:01:01.611Z,26.9
2022-08-16T10:02:23.237Z,26.8
2022-08-16T10:03:01.772Z,26.9
2022-08-16T10:04:04.118Z,27
2022-08-16T10:05:02.048Z,27.2
2022-08-16T10:06:01.628Z,27.4
2022-08-16T10:08:01.798Z,27.4
2022-08-16T10:09:04.102Z,27.6
2022-08-16T10:10:01.874Z,27.3
2022-08-16T10:11:01.453Z,27.2
2022-08-16T10:12:11.209Z,27.1
2022-08-16T10:13:01.597Z,27
2022-08-16T10:14:01.138Z,26.7
2022-08-16T10:15:02.068Z,26.8
2022-08-16T10:16:01.429Z,27.2
2022-08-16T10:17:02.199Z,27.4
2022-08-16T10:18:02.581Z,27.4
2022-08-16T10:19:06.806Z,27.3
2022-08-16T10:20:01.699Z,27.1
2022-08-16T10:21:01.237Z,27
2022-08-16T10:22:04.777Z,27.3
2022-08-16T10:23:06.397Z,27.2
2022-08-16T10:24:01.848Z,27.2
2022-08-16T10:25:01.430Z,27.3
2022-08-16T10:26:59.702Z,27.2
2022-08-16T10:27:21.028Z,27
2022-08-16T10:28:26.545Z,27.1
2022-08-16T10:29:01.650Z,27.1
2022-08-16T10:30:06.677Z,27.1
2022-08-16T10:31:03.378Z,27.5
2022-08-16T10:32:01.287Z,27.5
2022-08-16T10:33:01.845Z,27.6
2022-08-16T10:34:02.051Z,27.6
2022-08-16T10:35:02.076Z,27.4
2022-08-16T10:36:03.782Z,27.4
2022-08-16T10:37:01.202Z,27.5
2022-08-16T10:38:01.690Z,27.6
2022-08-16T10:39:01.232Z,27.5
2022-08-16T10:40:01.607Z,27.8
2022-08-16T10:41:01.248Z,27.7
2022-08-16T10:42:01.830Z,27.7
2022-08-16T10:43:01.431Z,27.3
2022-08-16T10:44:02.049Z,27.5
2022-08-16T10:45:01.657Z,27.3
2022-08-16T10:46:01.447Z,27.4
2022-08-16T10:47:02.315Z,27.5
2022-08-16T10:48:03.553Z,27.7
2022-08-16T10:49:01.407Z,28.1
2022-08-16T10:50:01.948Z,28.5
2022-08-16T10:51:01.307Z,28
2022-08-16T10:52:18.562Z,28
2022-08-16T10:53:05.017Z,28
2022-08-16T10:54:02.013Z,28.6
2022-08-16T10:56:01.471Z,28.9
2022-08-16T10:57:03.959Z,28.9
2022-08-16T10:58:01.572Z,29.2
2022-08-16T11:00:01.680Z,28.5
2022-08-16T11:01:24.892Z,28
2022-08-16T11:03:01.622Z,28.3
2022-08-16T11:04:01.841Z,28.5
2022-08-16T11:05:06.160Z,29
2022-08-16T11:06:03.460Z,29.5
2022-08-16T11:07:43.215Z,29.3
2022-08-16T11:08:01.633Z,29.2
2022-08-16T11:11:05.646Z,28.6
2022-08-16T11:12:13.376Z,28.3
2022-08-16T11:14:05.890Z,28.2
2022-08-16T11:15:17.716Z,28.4
2022-08-16T11:16:25.265Z,28.5
2022-08-16T11:17:02.060Z,28.6
2022-08-16T11:19:04.984Z,28.4
2022-08-16T11:20:36.885Z,28.3
2022-08-16T11:21:01.774Z,28.4
2022-08-16T11:22:22.645Z,28.3
2022-08-16T11:23:01.849Z,28.4
2022-08-16T11:24:01.433Z,28.7
2022-08-16T11:26:06.277Z,28.9
2022-08-16T11:26:08.158Z,28.6
2022-08-16T11:28:01.677Z,28.3
2022-08-16T11:29:17.265Z,28.3
2022-08-16T11:30:01.378Z,28.4
2022-08-16T11:31:01.975Z,28.6
2022-08-16T11:32:01.315Z,28.6
2022-08-16T11:33:01.461Z,28.3
2022-08-16T11:34:02.068Z,28.6
2022-08-16T11:35:11.325Z,28.6
2022-08-16T11:37:01.473Z,28.9
2022-08-16T11:38:05.796Z,28.8
2022-08-16T11:39:01.935Z,28.6
2022-08-16T11:40:01.816Z,28.6
2022-08-16T11:41:01.467Z,28.5
2022-08-16T11:42:02.543Z,28.4
2022-08-16T11:43:01.614Z,28.7
2022-08-16T11:44:02.148Z,28.4
2022-08-16T11:45:01.618Z,28.5
2022-08-16T11:46:01.492Z,28.8
2022-08-16T11:47:01.742Z,28.8
2022-08-16T11:48:01.348Z,28.5
2022-08-16T11:49:01.913Z,28.5
2022-08-16T11:50:01.500Z,28.2
2022-08-16T11:51:02.081Z,28.2
2022-08-16T11:52:01.670Z,28.4
2022-08-16T11:53:02.355Z,28.8
2022-08-16T11:54:02.035Z,28.9
2022-08-16T11:55:01.575Z,28.8
2022-08-16T11:56:02.103Z,28.8
2022-08-16T11:57:01.732Z,28.9
2022-08-16T11:58:01.338Z,29.2
2022-08-16T11:59:01.926Z,28.9
2022-08-16T12:00:01.508Z,28.7
2022-08-16T12:01:02.128Z,28.9
2022-08-16T12:02:04.488Z,28.9
2022-08-16T12:03:01.250Z,29.1
2022-08-16T12:04:01.894Z,29.1
2022-08-16T12:05:01.498Z,29.3
2022-08-16T12:06:01.671Z,29
2022-08-16T12:07:01.283Z,28.6
2022-08-16T12:08:01.902Z,28.7
2022-08-16T12:09:02.018Z,28.9
2022-08-16T12:10:02.169Z,28.9
2022-08-16T12:11:02.476Z,29.2
2022-08-16T12:12:02.816Z,29.2
2022-08-16T12:13:02.657Z,29.3
2022-08-16T12:14:01.476Z,29.4
2022-08-16T12:15:02.046Z,29.2
2022-08-16T12:16:01.633Z,29.4
2022-08-16T12:17:01.425Z,29.3
2022-08-16T12:18:02.011Z,29.1
2022-08-16T12:19:01.597Z,29.2
2022-08-16T12:20:02.200Z,29.6
2022-08-16T12:21:01.742Z,29.9
2022-08-16T12:22:01.281Z,29.9
2022-08-16T12:23:01.822Z,30
2022-08-16T12:24:01.658Z,30.1
2022-08-16T12:25:02.052Z,30.1
2022-08-16T12:26:01.634Z,29.9
2022-08-16T12:27:02.177Z,29.5
2022-08-16T12:28:02.800Z,29.2
2022-08-16T12:29:01.518Z,28.8
2022-08-16T12:30:02.118Z,28.6
2022-08-16T12:31:01.761Z,28.8
2022-08-16T12:32:26.860Z,29.2
2022-08-16T12:33:03.044Z,29.4
2022-08-16T12:34:01.880Z,29.3
2022-08-16T12:35:01.927Z,29.5
2022-08-16T12:36:01.719Z,29.7
2022-08-16T12:37:01.505Z,29.9
2022-08-16T12:38:02.008Z,29.9
2022-08-16T12:39:01.552Z,29.5
2022-08-16T12:40:02.314Z,29.6
2022-08-16T12:41:02.053Z,29.5
2022-08-16T12:42:01.582Z,29.4
2022-08-16T12:43:02.059Z,29.3
2022-08-16T12:44:01.898Z,29
2022-08-16T12:45:01.306Z,29.2
2022-08-16T12:46:02.271Z,29.3
2022-08-16T12:47:01.565Z,29.1
2022-08-16T12:48:22.422Z,29.2
2022-08-16T12:49:01.665Z,29.2
2022-08-16T12:50:01.249Z,29.1
2022-08-16T12:51:01.466Z,29.2
2022-08-16T12:52:02.667Z,29.1
2022-08-16T12:53:01.359Z,29
2022-08-16T12:54:01.925Z,29.1
2022-08-16T12:55:01.884Z,29.1
2022-08-16T12:56:01.513Z,29.2
2022-08-16T12:57:02.099Z,29.5
2022-08-16T12:58:01.686Z,29.7
2022-08-16T12:59:01.304Z,29.8
2022-08-16T13:00:01.856Z,29.7
2022-08-16T13:01:01.574Z,29.4
2022-08-16T13:02:02.023Z,29
2022-08-16T13:03:01.610Z,29.1
2022-08-16T13:04:11.710Z,29.2
2022-08-16T13:05:01.756Z,29.1
2022-08-16T13:06:01.548Z,29.2
2022-08-16T13:08:01.983Z,29.4
2022-08-16T13:09:01.257Z,29.6
2022-08-16T13:10:04.658Z,29.8
2022-08-16T13:11:01.827Z,29.8
2022-08-16T13:12:03.341Z,30
2022-08-16T13:13:01.267Z,29.9
2022-08-16T13:14:01.845Z,30.2
2022-08-16T13:15:01.387Z,30.1
2022-08-16T13:16:05.052Z,30.3
2022-08-16T13:17:01.268Z,29.8
2022-08-16T13:18:01.321Z,29.8
2022-08-16T13:19:01.862Z,29.9
2022-08-16T13:20:09.711Z,29.7
2022-08-16T13:21:01.982Z,29.9
2022-08-16T13:22:01.438Z,29.9
2022-08-16T13:23:01.263Z,30
2022-08-16T13:24:01.930Z,30
2022-08-16T13:25:01.343Z,30
2022-08-16T13:26:01.660Z,29.9
2022-08-16T13:27:01.262Z,29.8
2022-08-16T13:28:04.394Z,29.8
2022-08-16T13:29:01.389Z,30
2022-08-16T13:30:01.970Z,30
2022-08-16T13:31:01.511Z,30.2
2022-08-16T13:32:01.877Z,30.4